Time;durP1;ratioP1;P1;durP2;ratioP2;P2;SDS_P1;SDS_P2;PMS_P1;PMS_P2;Temp;Humidity;BMP_temperature;BMP_pressure;BME280_temperature;BME280_humidity;BME280_pressure;Samples;Min_cycle;Max_cycle;Signal;HPM_P1;HPM_P2
2024/01/07 00:00:44;;;;;;;17.87;9.83;;;;;;;1.02;100.00;101621.56;4972244;28;20081;-90
2024/01/07 00:03:10;;;;;;;17.10;9.37;;;;;;;0.99;100.00;101624.06;5004746;28;20088;-90
2024/01/07 00:05:37;;;;;;;16.80;9.20;;;;;;;0.98;100.00;101622.31;4976011;28;20491;-90
2024/01/07 00:08:03;;;;;;;16.60;9.03;;;;;;;0.99;100.00;101623.16;4993420;28;20023;-89
2024/01/07 00:10:28;;;;;;;16.30;9.67;;;;;;;1.02;100.00;101621.56;4973306;28;20037;-89
2024/01/07 00:12:53;;;;;;;16.30;9.03;;;;;;;1.06;100.00;101623.38;4995097;28;20111;-89
2024/01/07 00:15:19;;;;;;;15.67;9.07;;;;;;;1.09;100.00;101626.84;4993950;28;20519;-89
2024/01/07 00:17:44;;;;;;;17.80;9.90;;;;;;;1.09;100.00;101627.72;4990981;28;20031;-89
2024/01/07 00:20:11;;;;;;;17.20;9.63;;;;;;;1.09;100.00;101634.53;4993589;28;20021;-89
2024/01/07 00:22:36;;;;;;;15.50;8.60;;;;;;;1.09;100.00;101645.66;4999647;28;20022;-89
2024/01/07 00:25:01;;;;;;;17.60;9.73;;;;;;;1.06;100.00;101641.31;4993648;28;20041;-89
2024/01/07 00:27:27;;;;;;;15.63;8.77;;;;;;;1.05;100.00;101642.13;4973860;28;20030;-89
2024/01/07 00:29:52;;;;;;;17.37;9.37;;;;;;;1.06;100.00;101645.56;4992466;28;20550;-90
2024/01/07 00:32:18;;;;;;;17.13;9.37;;;;;;;1.03;100.00;101643.78;5003672;28;20038;-90
2024/01/07 00:34:44;;;;;;;15.33;8.57;;;;;;;1.00;100.00;101651.41;4977959;28;20089;-89
2024/01/07 00:37:09;;;;;;;15.30;9.03;;;;;;;0.95;100.00;101652.97;4990198;28;20034;-90
2024/01/07 00:39:34;;;;;;;16.17;8.47;;;;;;;0.94;100.00;101655.50;4992703;28;20387;-89
2024/01/07 00:41:59;;;;;;;13.70;8.17;;;;;;;0.93;100.00;101659.75;4997311;28;20471;-90
2024/01/07 00:44:25;;;;;;;16.37;9.10;;;;;;;0.92;100.00;101652.88;4990225;28;20078;-89
2024/01/07 00:46:50;;;;;;;16.97;9.67;;;;;;;0.89;100.00;101668.16;4994600;28;20027;-89
2024/01/07 00:49:16;;;;;;;15.63;9.17;;;;;;;0.87;100.00;101663.00;5002578;28;20028;-89
2024/01/07 00:51:42;;;;;;;15.83;9.00;;;;;;;0.86;100.00;101657.81;5006407;28;20475;-90
2024/01/07 00:54:07;;;;;;;16.40;9.07;;;;;;;0.86;100.00;101668.06;4990500;28;20033;-89
2024/01/07 00:56:32;;;;;;;16.90;9.03;;;;;;;0.85;100.00;101662.09;4991387;28;20026;-89
2024/01/07 00:58:58;;;;;;;17.63;9.30;;;;;;;0.85;100.00;101674.06;4990302;28;20026;-90
2024/01/07 01:01:23;;;;;;;16.73;9.33;;;;;;;0.82;100.00;101672.25;4990215;28;20030;-90
2024/01/07 01:03:48;;;;;;;18.27;9.83;;;;;;;0.83;100.00;101673.13;4982825;28;20021;-88
2024/01/07 01:06:14;;;;;;;15.77;8.67;;;;;;;0.82;100.00;101677.38;4973276;28;20037;-89
2024/01/07 01:08:40;;;;;;;19.27;10.37;;;;;;;0.84;100.00;101680.00;5001481;28;20034;-89
2024/01/07 01:11:05;;;;;;;17.30;9.47;;;;;;;0.83;100.00;101683.38;5004991;28;20026;-87
2024/01/07 01:13:30;;;;;;;20.70;10.47;;;;;;;0.86;100.00;101684.34;4975120;28;20026;-88
2024/01/07 01:15:56;;;;;;;18.13;9.77;;;;;;;0.87;100.00;101688.63;4971599;28;20085;-87
2024/01/07 01:18:21;;;;;;;20.20;10.07;;;;;;;0.87;100.00;101685.19;4990028;28;20370;-88
2024/01/07 01:20:46;;;;;;;19.70;10.67;;;;;;;0.85;100.00;101686.88;4996002;28;20121;-88
2024/01/07 01:23:12;;;;;;;23.50;11.43;;;;;;;0.80;100.00;101686.72;4995212;28;20102;-88
2024/01/07 01:25:39;;;;;;;23.57;11.97;;;;;;;0.79;100.00;101686.69;4987579;28;20061;-87
2024/01/07 01:28:05;;;;;;;20.30;9.67;;;;;;;0.74;100.00;101689.97;4979181;28;20545;-87
2024/01/07 01:30:31;;;;;;;22.57;11.20;;;;;;;0.75;100.00;101690.84;4994984;28;20058;-88
2024/01/07 01:32:57;;;;;;;21.83;11.53;;;;;;;0.74;100.00;101695.09;4973521;28;20033;-88
2024/01/07 01:35:22;;;;;;;23.53;12.17;;;;;;;0.74;100.00;101695.09;4957871;28;20024;-88
2024/01/07 01:37:48;;;;;;;21.60;11.27;;;;;;;0.77;100.00;101703.69;4976291;28;20027;-88
2024/01/07 01:40:14;;;;;;;21.20;10.83;;;;;;;0.77;100.00;101698.56;4957663;28;20084;-88
2024/01/07 01:42:43;;;;;;;22.43;11.10;;;;;;;0.74;100.00;101709.59;4956674;28;20034;-88
2024/01/07 01:45:08;;;;;;;22.33;10.90;;;;;;;0.71;100.00;101712.94;4976304;28;20054;-87
2024/01/07 01:47:34;;;;;;;22.73;11.60;;;;;;;0.68;100.00;101711.97;4957417;28;20475;-88
2024/01/07 01:49:59;;;;;;;23.17;11.60;;;;;;;0.66;100.00;101717.06;4959001;28;20077;-88
2024/01/07 01:52:25;;;;;;;23.20;12.00;;;;;;;0.68;100.00;101719.66;4955709;28;20040;-88
2024/01/07 01:54:51;;;;;;;24.07;11.70;;;;;;;0.67;100.00;101718.81;4974931;28;20109;-88
2024/01/07 01:57:20;;;;;;;24.93;12.10;;;;;;;0.71;100.00;101718.06;4979841;28;20653;-87
2024/01/07 01:59:46;;;;;;;22.33;10.70;;;;;;;0.73;100.00;101721.53;4975305;28;20423;-88
2024/01/07 02:02:11;;;;;;;22.30;11.30;;;;;;;0.71;100.00;101725.72;4974643;28;20018;-88
2024/01/07 02:04:37;;;;;;;23.87;11.53;;;;;;;0.72;100.00;101726.63;4955837;28;20515;-88
2024/01/07 02:07:02;;;;;;;25.50;11.00;;;;;;;0.74;100.00;101725.81;4958432;28;20030;-88
2024/01/07 02:09:27;;;;;;;29.03;12.70;;;;;;;0.75;100.00;101727.56;4975960;28;20034;-87
2024/01/07 02:12:03;;;;;;;28.97;13.13;;;;;;;0.73;100.00;101728.34;4983539;28;20030;-87
2024/01/07 02:14:29;;;;;;;29.37;13.13;;;;;;;0.71;100.00;101735.13;4982167;28;20035;-88
2024/01/07 02:16:54;;;;;;;31.00;14.30;;;;;;;0.68;100.00;101732.47;4978313;28;20049;-88
2024/01/07 02:19:21;;;;;;;30.63;12.93;;;;;;;0.67;100.00;101734.16;4960680;28;20022;-87
2024/01/07 02:21:46;;;;;;;29.47;13.23;;;;;;;0.67;100.00;101733.28;4975508;28;20456;-88
2024/01/07 02:24:15;;;;;;;27.37;12.90;;;;;;;0.69;100.00;101734.19;4976123;28;20068;-88
2024/01/07 02:26:41;;;;;;;31.20;13.47;;;;;;;0.70;100.00;101738.50;4973382;28;20026;-87
2024/01/07 02:29:06;;;;;;;29.77;13.23;;;;;;;0.67;100.00;101734.16;4974412;28;20051;-88
2024/01/07 02:31:31;;;;;;;30.97;13.07;;;;;;;0.66;100.00;101740.13;4972860;28;20038;-88
2024/01/07 02:33:57;;;;;;;28.37;12.60;;;;;;;0.66;100.00;101742.69;4976080;28;20491;-88
2024/01/07 02:36:22;;;;;;;28.93;12.47;;;;;;;0.69;100.00;101741.88;4959911;28;20057;-87
2024/01/07 02:38:47;;;;;;;27.67;12.83;;;;;;;0.68;100.00;101746.16;4981389;28;20030;-87
2024/01/07 02:41:13;;;;;;;26.67;11.97;;;;;;;0.69;100.00;101752.13;4972367;28;20062;-87
2024/01/07 02:43:38;;;;;;;28.17;13.00;;;;;;;0.69;100.00;101758.09;4977988;28;20498;-88
2024/01/07 02:46:03;;;;;;;26.47;11.93;;;;;;;0.68;100.00;101748.72;4963640;28;20023;-87
2024/01/07 02:48:29;;;;;;;29.07;11.93;;;;;;;0.69;100.00;101762.38;4972937;28;20391;-87
2024/01/07 02:50:54;;;;;;;26.77;12.27;;;;;;;0.67;100.00;101764.91;4975047;28;20035;-88
2024/01/07 02:53:19;;;;;;;25.80;12.10;;;;;;;0.69;100.00;101762.38;4962193;28;20184;-88
2024/01/07 02:55:45;;;;;;;28.63;12.60;;;;;;;0.67;100.00;101759.78;4972620;28;20118;-87
2024/01/07 02:58:10;;;;;;;24.07;11.03;;;;;;;0.68;100.00;101758.97;4956376;28;20037;-88
2024/01/07 03:00:35;;;;;;;23.40;11.27;;;;;;;0.71;100.00;101770.97;4977314;28;20029;-87
2024/01/07 03:03:01;;;;;;;23.10;11.37;;;;;;;0.71;100.00;101766.72;4974029;28;20034;-87
2024/01/07 03:05:29;;;;;;;23.27;11.27;;;;;;;0.73;100.00;101765.06;4974288;28;20031;-87
2024/01/07 03:07:54;;;;;;;23.00;10.93;;;;;;;0.74;100.00;101765.94;4978281;28;20049;-87
2024/01/07 03:10:19;;;;;;;22.90;11.00;;;;;;;0.74;100.00;101771.06;4973085;28;20050;-87
2024/01/07 03:12:45;;;;;;;20.47;10.40;;;;;;;0.77;100.00;101780.53;4954181;28;20114;-87
2024/01/07 03:15:10;;;;;;;20.50;10.37;;;;;;;0.75;100.00;101773.66;4955335;28;20057;-87
2024/01/07 03:17:35;;;;;;;23.03;11.23;;;;;;;0.79;100.00;101781.44;4955546;28;20083;-87
2024/01/07 03:20:01;;;;;;;19.47;9.80;;;;;;;0.78;100.00;101782.28;4966353;28;20080;-87
2024/01/07 03:22:26;;;;;;;23.00;10.87;;;;;;;0.82;100.00;101784.97;4976029;28;21532;-87
2024/01/07 03:24:51;;;;;;;18.43;9.40;;;;;;;0.83;100.00;101785.84;4975549;28;20079;-87
2024/01/07 03:27:17;;;;;;;19.13;9.90;;;;;;;0.83;100.00;101783.28;4976172;28;20074;-88
2024/01/07 03:29:42;;;;;;;19.63;10.23;;;;;;;0.81;100.00;101787.50;4985157;28;20084;-87
2024/01/07 03:32:07;;;;;;;20.47;11.20;;;;;;;0.75;100.00;101789.03;4980192;28;20038;-88
2024/01/07 03:34:33;;;;;;;20.53;10.63;;;;;;;0.74;100.00;101797.53;4974296;28;20027;-88
2024/01/07 03:36:58;;;;;;;18.63;9.80;;;;;;;0.72;100.00;101794.06;4954347;28;20031;-87
2024/01/07 03:39:23;;;;;;;19.93;10.30;;;;;;;0.72;100.00;101791.50;4985653;28;20022;-87
2024/01/07 03:41:49;;;;;;;18.10;9.67;;;;;;;0.72;100.00;101794.06;4972389;28;20387;-87
2024/01/07 03:44:14;;;;;;;18.80;9.53;;;;;;;0.70;100.00;101795.69;4954611;28;20035;-87
2024/01/07 03:46:39;;;;;;;19.27;9.33;;;;;;;0.70;100.00;101800.81;4975933;28;20046;-86
2024/01/07 03:49:05;;;;;;;17.07;8.73;;;;;;;0.73;100.00;101805.19;4957586;28;20030;-87
2024/01/07 03:51:30;;;;;;;15.53;7.93;;;;;;;0.74;100.00;101800.09;4970961;28;20022;-87
2024/01/07 03:53:55;;;;;;;16.77;8.03;;;;;;;0.75;100.00;101804.41;4972782;28;20057;-87
2024/01/07 03:56:21;;;;;;;17.30;8.37;;;;;;;0.73;100.00;101800.94;4954257;28;20018;-87
2024/01/07 03:58:46;;;;;;;14.23;7.37;;;;;;;0.80;100.00;101801.13;4972237;28;20026;-87
2024/01/07 04:01:16;;;;;;;18.10;8.90;;;;;;;0.77;100.00;101812.13;4975493;28;20085;-87
2024/01/07 04:03:41;;;;;;;18.20;9.30;;;;;;;0.78;100.00;101802.75;4971451;28;20489;-87
2024/01/07 04:06:07;;;;;;;21.43;11.00;;;;;;;0.72;100.00;101809.44;4972675;28;20040;-88
2024/01/07 04:08:33;;;;;;;21.60;10.10;;;;;;;0.70;100.00;101811.06;4972154;28;20035;-88
2024/01/07 04:10:58;;;;;;;22.93;11.53;;;;;;;0.67;100.00;101821.25;4955938;28;20455;-87
2024/01/07 04:13:23;;;;;;;24.87;11.53;;;;;;;0.65;100.00;101822.88;4968959;28;20471;-87
2024/01/07 04:15:49;;;;;;;21.17;11.60;;;;;;;0.64;100.00;101821.16;4949728;28;20026;-88
2024/01/07 04:18:14;;;;;;;22.90;10.63;;;;;;;0.57;100.00;101817.53;4977476;28;20026;-87
2024/01/07 04:20:39;;;;;;;22.73;10.20;;;;;;;0.59;100.00;101827.81;4969029;28;20054;-87
2024/01/07 04:23:05;;;;;;;19.33;9.97;;;;;;;0.58;100.00;101829.50;4970622;28;20460;-88
2024/01/07 04:25:30;;;;;;;18.80;9.53;;;;;;;0.58;100.00;101833.75;4973117;28;20074;-87
2024/01/07 04:27:55;;;;;;;18.17;9.03;;;;;;;0.60;100.00;101845.75;4974244;28;20089;-88
2024/01/07 04:30:21;;;;;;;17.23;9.00;;;;;;;0.61;100.00;101838.97;4979321;28;20029;-88
2024/01/07 04:32:46;;;;;;;16.33;9.00;;;;;;;0.63;100.00;101839.00;4975311;28;20093;-88
2024/01/07 04:35:11;;;;;;;17.13;8.77;;;;;;;0.58;100.00;101837.19;4971935;28;20037;-87
2024/01/07 04:37:37;;;;;;;16.10;8.63;;;;;;;0.57;100.00;101843.13;4986844;28;20463;-88
2024/01/07 04:40:02;;;;;;;15.17;8.83;;;;;;;0.57;100.00;101839.69;4972290;28;20088;-87
2024/01/07 04:42:28;;;;;;;15.27;8.40;;;;;;;0.53;100.00;101853.22;4996089;28;20026;-87
2024/01/07 04:44:53;;;;;;;13.53;8.33;;;;;;;0.57;100.00;101853.38;4966364;28;20560;-87
2024/01/07 04:47:29;;;;;;;13.47;7.30;;;;;;;0.59;100.00;101858.53;4986408;28;20399;-87
2024/01/07 04:49:55;;;;;;;12.97;7.10;;;;;;;0.58;100.00;101865.34;4977884;28;20479;-86
2024/01/07 04:52:22;;;;;;;13.17;7.13;;;;;;;0.59;100.00;101871.34;4990443;28;20073;-87
2024/01/07 04:54:47;;;;;;;14.23;8.00;;;;;;;0.59;100.00;101873.91;4966561;28;20029;-87
2024/01/07 04:57:13;;;;;;;12.70;7.33;;;;;;;0.56;100.00;101873.78;4986803;28;20030;-87
2024/01/07 04:59:38;;;;;;;11.47;7.07;;;;;;;0.55;100.00;101872.06;4984540;28;20061;-87
2024/01/07 05:02:04;;;;;;;12.67;6.87;;;;;;;0.56;100.00;101878.91;4991198;28;20034;-87
2024/01/07 05:04:29;;;;;;;11.30;7.10;;;;;;;0.56;100.00;101881.47;4989542;28;20061;-87
2024/01/07 05:06:54;;;;;;;15.13;8.33;;;;;;;0.52;100.00;101871.94;4989195;28;20026;-87
2024/01/07 05:09:19;;;;;;;13.30;8.07;;;;;;;0.49;100.00;101874.44;4987760;28;20030;-87
2024/01/07 05:11:45;;;;;;;11.13;6.67;;;;;;;0.48;100.00;101871.00;4971516;28;20364;-87
2024/01/07 05:14:11;;;;;;;13.30;7.73;;;;;;;0.44;100.00;101876.81;4972473;28;20448;-88
2024/01/07 05:16:36;;;;;;;12.00;7.73;;;;;;;0.41;100.00;101881.88;4983211;28;20598;-88
2024/01/07 05:19:02;;;;;;;12.93;8.17;;;;;;;0.38;100.00;101882.63;4972181;28;20105;-88
2024/01/07 05:21:27;;;;;;;15.13;8.40;;;;;;;0.38;100.00;101885.16;4994436;28;20165;-88
2024/01/07 05:23:52;;;;;;;13.17;7.47;;;;;;;0.36;100.00;101886.81;4998258;28;20092;-87
2024/01/07 05:26:18;;;;;;;13.20;7.60;;;;;;;0.36;100.00;101891.06;4971501;28;20032;-89
2024/01/07 05:28:43;;;;;;;14.57;8.77;;;;;;;0.34;100.00;101898.72;4984147;28;20080;-87
2024/01/07 05:31:18;;;;;;;13.57;7.87;;;;;;;0.32;100.00;101902.91;4986157;28;20652;-87
2024/01/07 05:33:47;;;;;;;15.00;8.47;;;;;;;0.30;100.00;101912.22;4991671;28;20088;-88
2024/01/07 05:36:12;;;;;;;15.60;8.77;;;;;;;0.31;100.00;101908.84;4971868;28;20054;-88
2024/01/07 05:38:38;;;;;;;12.83;7.37;;;;;;;0.27;100.00;101912.97;4992877;28;20030;-87
2024/01/07 05:41:04;;;;;;;16.57;8.50;;;;;;;0.29;100.00;101915.59;4980403;28;20495;-87
2024/01/07 05:43:29;;;;;;;13.20;8.27;;;;;;;0.29;100.00;101920.72;4975863;28;20025;-87
2024/01/07 05:45:54;;;;;;;13.17;7.33;;;;;;;0.30;100.00;101918.19;4988585;28;20034;-87
2024/01/07 05:48:23;;;;;;;12.30;7.13;;;;;;;0.30;100.00;101927.56;4984474;28;20029;-87
2024/01/07 05:50:49;;;;;;;12.47;7.30;;;;;;;0.33;100.00;101926.78;4989917;28;20033;-88
2024/01/07 05:53:15;;;;;;;14.00;8.10;;;;;;;0.28;100.00;101929.22;4989722;28;20050;-88
2024/01/07 05:55:40;;;;;;;13.27;7.83;;;;;;;0.29;100.00;101930.94;4996455;28;20084;-88
2024/01/07 05:58:05;;;;;;;13.43;7.90;;;;;;;0.26;100.00;101933.41;4992139;28;20414;-86
2024/01/07 06:00:31;;;;;;;12.87;7.57;;;;;;;0.27;100.00;101932.59;4978042;28;20458;-88
2024/01/07 06:02:57;;;;;;;13.53;8.10;;;;;;;0.24;100.00;101937.59;4973448;28;20053;-88
2024/01/07 06:05:23;;;;;;;11.60;7.27;;;;;;;0.21;100.00;101940.03;4976295;28;20030;-87
2024/01/07 06:07:48;;;;;;;12.00;7.30;;;;;;;0.22;100.00;101949.47;4993372;28;20026;-87
2024/01/07 06:10:14;;;;;;;11.57;7.03;;;;;;;0.19;100.00;101949.34;4994521;28;20489;-88
2024/01/07 06:12:40;;;;;;;14.40;8.07;;;;;;;0.19;100.00;101951.91;4980329;28;20033;-87
2024/01/07 06:15:05;;;;;;;12.27;7.63;;;;;;;0.17;100.00;101948.44;4995665;28;20034;-88
2024/01/07 06:17:31;;;;;;;13.27;7.60;;;;;;;0.13;100.00;101961.13;4999864;28;20030;-87
2024/01/07 06:19:56;;;;;;;13.40;7.93;;;;;;;0.12;100.00;101956.81;4996456;28;20075;-88
2024/01/07 06:22:22;;;;;;;13.00;7.77;;;;;;;0.11;100.00;101952.53;4979173;28;20022;-87
2024/01/07 06:24:47;;;;;;;14.37;8.27;;;;;;;0.11;100.00;101967.00;4977260;28;20146;-87
2024/01/07 06:27:13;;;;;;;13.03;7.50;;;;;;;0.11;100.00;101970.44;4995988;28;20062;-87
2024/01/07 06:29:38;;;;;;;12.73;7.77;;;;;;;0.11;100.00;101978.13;4997694;28;20097;-88
2024/01/07 06:32:04;;;;;;;10.83;6.83;;;;;;;0.12;100.00;101984.97;4977987;28;20187;-88
2024/01/07 06:34:29;;;;;;;14.33;8.10;;;;;;;0.11;100.00;101985.78;4977883;28;20030;-88
2024/01/07 06:36:54;;;;;;;14.73;7.80;;;;;;;0.07;100.00;101983.94;4971263;28;20034;-87
2024/01/07 06:39:20;;;;;;;14.97;8.13;;;;;;;0.08;100.00;101997.59;4956251;28;20030;-88
2024/01/07 06:41:45;;;;;;;14.43;7.63;;;;;;;0.08;100.00;101997.59;4956935;28;20022;-87
2024/01/07 06:44:10;;;;;;;12.40;7.77;;;;;;;0.09;100.00;102000.22;4972562;28;20187;-86
2024/01/07 06:46:36;;;;;;;12.10;7.20;;;;;;;0.09;100.00;102005.34;4976223;28;20030;-87
2024/01/07 06:49:01;;;;;;;13.43;8.20;;;;;;;0.10;100.00;102012.19;4979605;28;20037;-87
2024/01/07 06:51:26;;;;;;;13.60;7.53;;;;;;;0.12;100.00;102010.56;4980760;28;20603;-88
2024/01/07 06:53:52;;;;;;;12.40;7.83;;;;;;;0.12;100.00;102014.78;4977052;28;20022;-88
2024/01/07 06:56:17;;;;;;;15.77;8.57;;;;;;;0.09;100.00;102019.78;4956130;28;20020;-87
2024/01/07 06:58:43;;;;;;;15.07;8.03;;;;;;;0.05;100.00;102020.53;4974037;28;20533;-88
2024/01/07 07:01:08;;;;;;;14.30;8.20;;;;;;;0.05;100.00;102025.63;4974209;28;20035;-87
2024/01/07 07:03:33;;;;;;;15.00;8.93;;;;;;;0.02;100.00;102026.38;4977374;28;20023;-88
2024/01/07 07:05:59;;;;;;;14.67;8.67;;;;;;;-0.03;100.00;102033.03;4982344;28;20488;-88
2024/01/07 07:08:24;;;;;;;13.83;8.60;;;;;;;-0.05;100.00;102043.19;4959820;28;20644;-87
2024/01/07 07:10:49;;;;;;;13.20;7.70;;;;;;;-0.06;100.00;102045.69;4975491;28;20042;-88
2024/01/07 07:13:15;;;;;;;12.87;7.43;;;;;;;-0.03;100.00;102046.69;4978854;28;20018;-87
2024/01/07 07:15:40;;;;;;;15.70;8.77;;;;;;;-0.06;100.00;102048.25;4976050;28;20041;-88
2024/01/07 07:18:06;;;;;;;16.33;9.57;;;;;;;-0.06;100.00;102048.25;4973353;28;20352;-87
2024/01/07 07:20:31;;;;;;;13.70;8.07;;;;;;;-0.07;100.00;102054.19;4977669;28;20495;-87
2024/01/07 07:22:56;;;;;;;14.33;7.70;;;;;;;-0.03;100.00;102062.03;4977427;28;20073;-89
2024/01/07 07:25:22;;;;;;;15.03;8.50;;;;;;;-0.03;100.00;102061.16;4972659;28;20027;-87
2024/01/07 07:27:47;;;;;;;15.30;8.40;;;;;;;-0.04;100.00;102059.44;4972869;28;20023;-87
2024/01/07 07:30:13;;;;;;;13.33;7.53;;;;;;;-0.03;100.00;102064.59;4972743;28;20130;-88
2024/01/07 07:32:41;;;;;;;14.87;7.47;;;;;;;-0.03;100.00;102069.72;4970542;28;20051;-88
2024/01/07 07:35:07;;;;;;;12.90;7.17;;;;;;;-0.05;100.00;102073.03;4954251;28;20027;-87
2024/01/07 07:37:33;;;;;;;14.60;8.50;;;;;;;-0.05;100.00;102079.00;4969972;28;20030;-87
2024/01/07 07:39:58;;;;;;;12.37;7.73;;;;;;;-0.05;100.00;102083.25;4957296;28;20046;-87
2024/01/07 07:42:24;;;;;;;12.93;7.47;;;;;;;-0.03;100.00;102091.88;4971699;28;20476;-87
2024/01/07 07:44:49;;;;;;;10.60;6.80;;;;;;;0.02;100.00;102100.56;4970042;28;20594;-87
2024/01/07 07:47:14;;;;;;;12.30;7.00;;;;;;;0.04;100.00;102098.94;4970911;28;20030;-86
2024/01/07 07:49:40;;;;;;;10.23;6.30;;;;;;;0.08;100.00;102102.53;4978367;28;20060;-87
2024/01/07 07:52:09;;;;;;;13.57;7.23;;;;;;;0.10;100.00;102113.66;4977354;28;20026;-88
2024/01/07 07:54:37;;;;;;;15.10;7.77;;;;;;;0.06;100.00;102111.81;4975197;28;20050;-87
2024/01/07 07:57:03;;;;;;;14.10;7.07;;;;;;;0.03;99.87;102116.81;4972093;28;20035;-87
2024/01/07 07:59:28;;;;;;;14.77;8.10;;;;;;;0.02;99.64;102120.19;4959153;28;20114;-88
2024/01/07 08:01:54;;;;;;;13.33;7.67;;;;;;;0.00;100.00;102127.81;4974264;28;20439;-88
2024/01/07 08:04:19;;;;;;;13.50;7.10;;;;;;;0.01;99.90;102126.13;4979139;28;20034;-87
2024/01/07 08:06:45;;;;;;;13.50;7.60;;;;;;;0.02;99.84;102127.84;4953224;28;20019;-88
2024/01/07 08:09:10;;;;;;;12.63;7.00;;;;;;;0.01;100.00;102121.84;4954402;28;20102;-88
2024/01/07 08:11:36;;;;;;;13.37;7.20;;;;;;;-0.04;99.70;102125.94;4973238;28;20042;-87
2024/01/07 08:14:01;;;;;;;12.53;7.13;;;;;;;-0.10;99.09;102129.13;4973441;28;20015;-87
2024/01/07 08:16:27;;;;;;;15.80;7.73;;;;;;;-0.08;99.40;102134.31;4972110;28;20031;-87
2024/01/07 08:18:52;;;;;;;14.50;8.10;;;;;;;-0.06;99.62;102137.78;4971099;28;20111;-87
2024/01/07 08:21:18;;;;;;;15.37;7.90;;;;;;;-0.10;98.86;102141.94;4953429;28;20475;-87
2024/01/07 08:23:43;;;;;;;13.63;7.07;;;;;;;-0.10;99.32;102135.91;4971938;28;20046;-88
2024/01/07 08:26:08;;;;;;;11.93;6.90;;;;;;;-0.13;99.02;102143.47;4955266;28;20038;-87
2024/01/07 08:28:34;;;;;;;11.43;6.90;;;;;;;-0.11;99.01;102144.41;4972567;28;20031;-88
2024/01/07 08:30:59;;;;;;;12.97;7.50;;;;;;;-0.10;99.26;102147.03;4960150;28;20058;-87
2024/01/07 08:33:25;;;;;;;13.53;7.20;;;;;;;-0.10;98.95;102164.06;4996704;28;20043;-87
2024/01/07 08:35:50;;;;;;;15.20;8.57;;;;;;;-0.05;98.64;102160.00;4977132;28;20030;-87
2024/01/07 08:38:15;;;;;;;13.43;8.00;;;;;;;-0.09;98.96;102158.13;4979605;28;20037;-88
2024/01/07 08:40:41;;;;;;;14.37;7.53;;;;;;;-0.12;98.50;102165.69;4994598;28;20475;-87
2024/01/07 08:43:06;;;;;;;11.17;7.27;;;;;;;-0.11;98.96;102167.44;4992765;28;20022;-87
2024/01/07 08:45:31;;;;;;;13.70;7.50;;;;;;;-0.12;98.81;102178.47;4991163;28;20045;-88
2024/01/07 08:47:57;;;;;;;13.73;7.27;;;;;;;-0.12;98.21;102176.81;4991301;28;20089;-87
2024/01/07 08:50:22;;;;;;;12.60;7.20;;;;;;;-0.11;98.32;102177.66;4991399;28;20722;-87
2024/01/07 08:52:47;;;;;;;12.50;6.77;;;;;;;-0.11;98.18;102186.22;4993638;28;20021;-88
2024/01/07 08:55:13;;;;;;;10.73;6.40;;;;;;;-0.13;98.12;102184.41;5003585;28;20099;-87
2024/01/07 08:57:38;;;;;;;11.00;6.60;;;;;;;-0.11;98.27;102187.88;4994345;28;20056;-88
2024/01/07 09:00:07;;;;;;;10.77;6.40;;;;;;;-0.11;97.98;102190.44;4995465;28;20501;-88
2024/01/07 09:02:32;;;;;;;10.30;6.20;;;;;;;-0.10;97.91;102197.31;4994674;28;20022;-87
2024/01/07 09:04:58;;;;;;;12.10;6.50;;;;;;;-0.11;97.71;102206.69;4992108;28;20037;-87
2024/01/07 09:07:23;;;;;;;10.10;6.00;;;;;;;-0.06;97.64;102204.31;4973020;28;20031;-87
2024/01/07 09:09:48;;;;;;;11.40;6.27;;;;;;;-0.07;97.35;102208.53;4973658;28;20033;-88
2024/01/07 09:12:14;;;;;;;9.83;6.20;;;;;;;-0.07;97.59;102216.22;4981169;28;20032;-88
2024/01/07 09:14:40;;;;;;;11.13;6.30;;;;;;;-0.06;97.76;102214.53;4994574;28;20034;-87
2024/01/07 09:17:05;;;;;;;10.13;6.13;;;;;;;-0.05;98.00;102226.53;4972459;28;20460;-89
2024/01/07 09:19:30;;;;;;;9.30;5.70;;;;;;;-0.08;97.97;102221.28;4976504;28;20510;-87
2024/01/07 09:21:56;;;;;;;10.20;6.37;;;;;;;-0.09;97.58;102229.75;4991118;28;20034;-88
2024/01/07 09:24:21;;;;;;;11.73;6.20;;;;;;;-0.10;98.29;102228.91;4972926;28;20031;-90
2024/01/07 09:26:46;;;;;;;9.87;6.83;;;;;;;-0.15;98.22;102230.38;4974945;28;21647;-90
2024/01/07 09:29:12;;;;;;;10.47;6.40;;;;;;;-0.17;98.10;102232.88;5000574;28;20076;-90
2024/01/07 09:31:37;;;;;;;11.20;6.80;;;;;;;-0.16;98.13;102244.00;4983903;28;20047;-89
2024/01/07 09:34:04;;;;;;;9.67;6.20;;;;;;;-0.15;98.75;102248.28;4971643;28;20044;-90
2024/01/07 09:36:29;;;;;;;10.33;6.23;;;;;;;-0.13;98.70;102245.78;4955125;28;20057;-91
2024/01/07 09:38:54;;;;;;;9.00;5.63;;;;;;;-0.13;98.32;102253.47;4966763;28;20030;-90
2024/01/07 09:41:20;;;;;;;10.60;5.73;;;;;;;-0.17;97.84;102262.69;4968379;28;20066;-90
2024/01/07 09:43:45;;;;;;;8.80;5.67;;;;;;;-0.16;97.68;102265.31;4959717;28;20025;-89
2024/01/07 09:46:11;;;;;;;7.97;4.93;;;;;;;-0.10;98.41;102268.94;4976502;28;20114;-91
2024/01/07 09:48:36;;;;;;;7.50;5.37;;;;;;;-0.16;97.84;102265.31;4973242;28;20101;-89
2024/01/07 09:51:04;;;;;;;10.40;6.77;;;;;;;-0.12;97.58;102270.56;4974114;28;20495;-90
2024/01/07 09:53:35;;;;;;;11.60;6.63;;;;;;;-0.15;97.61;102271.31;4956759;28;20415;-90
2024/01/07 09:56:20;;;;;;;10.40;6.82;;;;;;;-0.16;97.58;102274.69;4962184;28;20030;-90
2024/01/07 09:58:49;;;;;;;9.97;5.77;;;;;;;-0.14;97.70;102279.84;4960082;28;20462;-89
2024/01/07 10:01:18;;;;;;;9.00;5.77;;;;;;;-0.13;97.42;102285.03;4988236;28;20068;-91
2024/01/07 10:03:44;;;;;;;9.63;6.13;;;;;;;-0.15;97.21;102273.88;4977532;28;20081;-91
2024/01/07 10:06:10;;;;;;;10.00;5.70;;;;;;;-0.13;97.58;102286.72;4955791;28;20432;-90
2024/01/07 10:08:37;;;;;;;10.37;6.77;;;;;;;-0.16;96.76;102284.91;4959406;28;20491;-89
2024/01/07 10:11:03;;;;;;;10.37;6.40;;;;;;;-0.16;96.75;102296.00;4955523;28;20019;-89
2024/01/07 10:13:28;;;;;;;9.60;6.03;;;;;;;-0.17;96.53;102291.69;4976604;28;20015;-90
2024/01/07 10:15:54;;;;;;;9.67;5.97;;;;;;;-0.18;95.83;102299.31;4976057;28;20030;-90
2024/01/07 10:18:20;;;;;;;11.90;6.40;;;;;;;-0.17;95.98;102298.50;4955512;28;20034;-90
2024/01/07 10:20:45;;;;;;;10.33;6.20;;;;;;;-0.16;96.11;102302.81;4975566;28;20372;-91
2024/01/07 10:23:11;;;;;;;10.17;6.03;;;;;;;-0.16;96.06;102295.16;4963260;28;20372;-91
2024/01/07 10:25:37;;;;;;;12.07;6.10;;;;;;;-0.13;95.75;102304.63;4977629;28;20160;-96
2024/01/07 10:28:03;;;;;;;10.30;6.37;;;;;;;-0.14;95.75;102298.66;4957536;28;20177;-90
2024/01/07 10:30:29;;;;;;;10.57;6.80;;;;;;;-0.16;95.14;102306.25;4964905;28;20479;-93
2024/01/07 10:32:58;;;;;;;9.93;6.47;;;;;;;-0.17;95.65;102308.75;4963817;28;20026;-92
2024/01/07 10:35:35;;;;;;;8.17;5.47;;;;;;;-0.13;95.83;102302.06;4964394;28;20559;-91
2024/01/07 10:38:01;;;;;;;8.83;5.57;;;;;;;-0.16;95.77;102311.34;4961552;28;20053;-93
2024/01/07 10:40:28;;;;;;;9.53;6.10;;;;;;;-0.16;95.46;102306.25;4962908;28;20049;-93
2024/01/07 10:42:54;;;;;;;11.70;6.70;;;;;;;-0.10;95.49;102310.75;4961556;28;20023;-90
2024/01/07 10:45:20;;;;;;;9.90;6.40;;;;;;;-0.07;95.58;102304.88;4982642;28;20046;-91
2024/01/07 10:47:52;;;;;;;9.40;5.93;;;;;;;-0.06;94.50;102311.75;4977163;28;20026;-92
2024/01/07 10:50:26;;;;;;;8.88;5.75;;;;;;;-0.05;95.62;102308.38;4984833;28;20030;-96
2024/01/07 10:53:01;;;;;;;12.33;6.20;;;;;;;-0.04;95.11;102310.16;4964899;28;20090;-92
2024/01/07 10:55:33;;;;;;;9.57;6.20;;;;;;;-0.05;94.88;102323.75;4960789;28;20034;-94
2024/01/07 10:58:00;;;;;;;9.50;6.23;;;;;;;0.00;95.20;102312.03;4969060;28;20022;-93
2024/01/07 11:00:26;;;;;;;9.83;6.40;;;;;;;0.03;94.69;102313.81;4969803;28;20034;-92
2024/01/07 11:03:03;;;;;;;10.77;6.60;;;;;;;0.03;94.59;102312.13;4975373;28;20030;-91
2024/01/07 11:05:50;;;;;;;11.70;6.97;;;;;;;0.03;94.39;102322.38;4957157;28;20043;-89
2024/01/07 11:08:36;;;;;;;11.43;6.80;;;;;;;0.01;94.18;102329.09;4964785;28;20031;-91
2024/01/07 11:11:28;;;;;;;10.77;6.10;;;;;;;0.06;94.35;102321.63;4974561;28;20115;-93